sensor_id;sensor_type;location;lat;lon;timestamp;P1;durP1;ratioP1;P2;durP2;ratioP2
54959;SDS011;40860;51.710;8.736;2024-02-28T00:02:35;30.08;;;17.67;;
54959;SDS011;40860;51.710;8.736;2024-02-28T00:06:38;25.77;;;16.27;;
54959;SDS011;40860;51.710;8.736;2024-02-28T00:10:41;27.92;;;17.63;;
54959;SDS011;40860;51.710;8.736;2024-02-28T00:14:44;29.88;;;18.90;;
54959;SDS011;40860;51.710;8.736;2024-02-28T00:18:48;33.25;;;19.42;;
54959;SDS011;40860;51.710;8.736;2024-02-28T00:22:51;29.88;;;17.25;;
54959;SDS011;40860;51.710;8.736;2024-02-28T00:26:54;27.75;;;17.73;;
54959;SDS011;40860;51.710;8.736;2024-02-28T00:30:56;26.60;;;17.27;;
54959;SDS011;40860;51.710;8.736;2024-02-28T00:35:01;27.83;;;17.75;;
54959;SDS011;40860;51.710;8.736;2024-02-28T00:39:04;31.42;;;18.60;;
54959;SDS011;40860;51.710;8.736;2024-02-28T00:43:06;32.45;;;17.30;;
54959;SDS011;40860;51.710;8.736;2024-02-28T00:47:09;30.10;;;17.35;;
54959;SDS011;40860;51.710;8.736;2024-02-28T00:51:13;27.38;;;16.42;;
54959;SDS011;40860;51.710;8.736;2024-02-28T00:55:16;31.27;;;17.77;;
54959;SDS011;40860;51.710;8.736;2024-02-28T00:59:20;28.73;;;17.80;;
54959;SDS011;40860;51.710;8.736;2024-02-28T01:03:22;31.80;;;18.33;;
54959;SDS011;40860;51.710;8.736;2024-02-28T01:07:27;32.05;;;19.33;;
54959;SDS011;40860;51.710;8.736;2024-02-28T01:11:30;31.13;;;18.30;;
54959;SDS011;40860;51.710;8.736;2024-02-28T01:15:33;32.60;;;18.70;;
54959;SDS011;40860;51.710;8.736;2024-02-28T01:19:36;31.05;;;18.08;;
54959;SDS011;40860;51.710;8.736;2024-02-28T01:23:40;31.70;;;18.88;;
54959;SDS011;40860;51.710;8.736;2024-02-28T01:27:45;35.20;;;18.92;;
54959;SDS011;40860;51.710;8.736;2024-02-28T01:31:48;32.67;;;18.85;;
54959;SDS011;40860;51.710;8.736;2024-02-28T01:35:51;30.35;;;18.60;;
54959;SDS011;40860;51.710;8.736;2024-02-28T01:39:57;30.10;;;17.90;;
54959;SDS011;40860;51.710;8.736;2024-02-28T01:44:00;33.40;;;19.05;;
54959;SDS011;40860;51.710;8.736;2024-02-28T01:48:03;30.98;;;18.60;;
54959;SDS011;40860;51.710;8.736;2024-02-28T01:52:08;28.52;;;18.23;;
54959;SDS011;40860;51.710;8.736;2024-02-28T01:56:14;30.25;;;17.70;;
54959;SDS011;40860;51.710;8.736;2024-02-28T02:00:18;29.58;;;17.45;;
54959;SDS011;40860;51.710;8.736;2024-02-28T02:04:24;28.98;;;17.33;;
54959;SDS011;40860;51.710;8.736;2024-02-28T02:08:26;30.15;;;18.02;;
54959;SDS011;40860;51.710;8.736;2024-02-28T02:12:30;30.38;;;17.33;;
54959;SDS011;40860;51.710;8.736;2024-02-28T02:16:34;31.23;;;18.27;;
54959;SDS011;40860;51.710;8.736;2024-02-28T02:20:38;32.72;;;19.38;;
54959;SDS011;40860;51.710;8.736;2024-02-28T02:24:46;30.00;;;18.45;;
54959;SDS011;40860;51.710;8.736;2024-02-28T02:28:49;31.17;;;18.83;;
54959;SDS011;40860;51.710;8.736;2024-02-28T02:32:52;30.98;;;18.85;;
54959;SDS011;40860;51.710;8.736;2024-02-28T02:36:55;31.13;;;18.05;;
54959;SDS011;40860;51.710;8.736;2024-02-28T02:40:59;30.55;;;17.42;;
54959;SDS011;40860;51.710;8.736;2024-02-28T02:45:02;30.30;;;18.33;;
54959;SDS011;40860;51.710;8.736;2024-02-28T02:49:05;30.20;;;18.92;;
54959;SDS011;40860;51.710;8.736;2024-02-28T02:53:09;30.38;;;17.95;;
54959;SDS011;40860;51.710;8.736;2024-02-28T02:57:13;32.45;;;19.02;;
54959;SDS011;40860;51.710;8.736;2024-02-28T03:01:16;31.70;;;18.80;;
54959;SDS011;40860;51.710;8.736;2024-02-28T03:05:21;31.98;;;18.65;;
54959;SDS011;40860;51.710;8.736;2024-02-28T03:09:24;32.30;;;18.67;;
54959;SDS011;40860;51.710;8.736;2024-02-28T03:13:28;31.27;;;18.38;;
54959;SDS011;40860;51.710;8.736;2024-02-28T03:17:31;30.20;;;18.40;;
54959;SDS011;40860;51.710;8.736;2024-02-28T03:21:34;29.25;;;17.77;;
54959;SDS011;40860;51.710;8.736;2024-02-28T03:25:37;37.28;;;20.52;;
54959;SDS011;40860;51.710;8.736;2024-02-28T03:29:41;35.45;;;19.67;;
54959;SDS011;40860;51.710;8.736;2024-02-28T03:33:44;37.90;;;21.08;;
54959;SDS011;40860;51.710;8.736;2024-02-28T03:37:48;38.33;;;20.52;;
54959;SDS011;40860;51.710;8.736;2024-02-28T03:41:51;36.00;;;19.83;;
54959;SDS011;40860;51.710;8.736;2024-02-28T03:45:55;40.05;;;22.38;;
54959;SDS011;40860;51.710;8.736;2024-02-28T03:49:58;46.42;;;23.80;;
54959;SDS011;40860;51.710;8.736;2024-02-28T03:54:01;44.55;;;23.23;;
54959;SDS011;40860;51.710;8.736;2024-02-28T03:58:04;43.65;;;24.20;;
54959;SDS011;40860;51.710;8.736;2024-02-28T04:02:11;47.67;;;24.38;;
54959;SDS011;40860;51.710;8.736;2024-02-28T04:06:14;51.22;;;25.52;;
54959;SDS011;40860;51.710;8.736;2024-02-28T04:10:17;57.92;;;28.30;;
54959;SDS011;40860;51.710;8.736;2024-02-28T04:14:20;56.33;;;27.42;;
54959;SDS011;40860;51.710;8.736;2024-02-28T04:18:24;71.00;;;28.27;;
54959;SDS011;40860;51.710;8.736;2024-02-28T04:22:27;53.78;;;26.75;;
54959;SDS011;40860;51.710;8.736;2024-02-28T04:26:29;55.80;;;26.30;;
54959;SDS011;40860;51.710;8.736;2024-02-28T04:30:32;57.83;;;27.38;;
54959;SDS011;40860;51.710;8.736;2024-02-28T04:34:37;62.65;;;26.13;;
54959;SDS011;40860;51.710;8.736;2024-02-28T04:38:39;60.47;;;27.17;;
54959;SDS011;40860;51.710;8.736;2024-02-28T04:42:42;55.28;;;25.88;;
54959;SDS011;40860;51.710;8.736;2024-02-28T04:46:46;55.83;;;26.00;;
54959;SDS011;40860;51.710;8.736;2024-02-28T04:50:50;54.28;;;26.17;;
54959;SDS011;40860;51.710;8.736;2024-02-28T04:54:53;57.03;;;27.55;;
54959;SDS011;40860;51.710;8.736;2024-02-28T04:58:56;60.55;;;27.35;;
54959;SDS011;40860;51.710;8.736;2024-02-28T05:02:59;53.97;;;26.67;;
54959;SDS011;40860;51.710;8.736;2024-02-28T05:07:03;53.40;;;25.90;;
54959;SDS011;40860;51.710;8.736;2024-02-28T05:11:08;54.05;;;27.13;;
54959;SDS011;40860;51.710;8.736;2024-02-28T05:15:11;61.60;;;27.40;;
54959;SDS011;40860;51.710;8.736;2024-02-28T05:19:14;59.00;;;29.27;;
54959;SDS011;40860;51.710;8.736;2024-02-28T05:23:20;61.10;;;29.02;;
54959;SDS011;40860;51.710;8.736;2024-02-28T05:27:30;55.72;;;27.77;;
54959;SDS011;40860;51.710;8.736;2024-02-28T05:31:33;59.63;;;28.42;;
54959;SDS011;40860;51.710;8.736;2024-02-28T05:35:38;61.42;;;27.88;;
54959;SDS011;40860;51.710;8.736;2024-02-28T05:39:42;60.42;;;28.95;;
54959;SDS011;40860;51.710;8.736;2024-02-28T05:43:45;59.17;;;27.70;;
54959;SDS011;40860;51.710;8.736;2024-02-28T05:47:48;64.13;;;28.98;;
54959;SDS011;40860;51.710;8.736;2024-02-28T05:51:51;58.90;;;27.65;;
54959;SDS011;40860;51.710;8.736;2024-02-28T05:55:56;64.55;;;28.92;;
54959;SDS011;40860;51.710;8.736;2024-02-28T05:59:59;62.45;;;29.38;;
54959;SDS011;40860;51.710;8.736;2024-02-28T06:04:11;62.83;;;29.30;;
54959;SDS011;40860;51.710;8.736;2024-02-28T06:08:14;56.42;;;27.50;;
54959;SDS011;40860;51.710;8.736;2024-02-28T06:12:18;58.83;;;26.73;;
54959;SDS011;40860;51.710;8.736;2024-02-28T06:16:21;57.45;;;26.73;;
54959;SDS011;40860;51.710;8.736;2024-02-28T06:20:24;63.10;;;28.13;;
54959;SDS011;40860;51.710;8.736;2024-02-28T06:24:27;62.95;;;27.50;;
54959;SDS011;40860;51.710;8.736;2024-02-28T06:28:31;63.70;;;28.38;;
54959;SDS011;40860;51.710;8.736;2024-02-28T06:32:34;66.10;;;28.17;;
54959;SDS011;40860;51.710;8.736;2024-02-28T06:36:37;66.93;;;27.92;;
54959;SDS011;40860;51.710;8.736;2024-02-28T06:40:40;60.17;;;27.50;;
54959;SDS011;40860;51.710;8.736;2024-02-28T06:44:44;65.47;;;28.40;;
54959;SDS011;40860;51.710;8.736;2024-02-28T06:48:47;64.20;;;29.20;;
54959;SDS011;40860;51.710;8.736;2024-02-28T06:52:50;63.78;;;28.27;;
54959;SDS011;40860;51.710;8.736;2024-02-28T06:56:55;63.60;;;27.73;;
54959;SDS011;40860;51.710;8.736;2024-02-28T07:00:59;61.05;;;26.13;;
54959;SDS011;40860;51.710;8.736;2024-02-28T07:05:03;61.40;;;27.73;;
54959;SDS011;40860;51.710;8.736;2024-02-28T07:09:08;67.97;;;28.52;;
54959;SDS011;40860;51.710;8.736;2024-02-28T07:13:11;63.72;;;29.38;;
54959;SDS011;40860;51.710;8.736;2024-02-28T07:17:15;61.13;;;28.08;;
54959;SDS011;40860;51.710;8.736;2024-02-28T07:21:18;63.38;;;29.90;;
54959;SDS011;40860;51.710;8.736;2024-02-28T07:25:21;60.45;;;27.98;;
54959;SDS011;40860;51.710;8.736;2024-02-28T07:29:24;58.58;;;27.13;;
54959;SDS011;40860;51.710;8.736;2024-02-28T07:33:28;63.88;;;27.20;;
54959;SDS011;40860;51.710;8.736;2024-02-28T07:37:31;60.80;;;28.42;;
54959;SDS011;40860;51.710;8.736;2024-02-28T07:41:34;57.22;;;26.73;;
54959;SDS011;40860;51.710;8.736;2024-02-28T07:45:36;58.72;;;25.85;;
54959;SDS011;40860;51.710;8.736;2024-02-28T07:49:41;62.03;;;27.98;;
54959;SDS011;40860;51.710;8.736;2024-02-28T07:53:45;57.28;;;26.80;;
54959;SDS011;40860;51.710;8.736;2024-02-28T07:57:50;59.97;;;27.25;;
54959;SDS011;40860;51.710;8.736;2024-02-28T08:01:53;59.78;;;27.77;;
54959;SDS011;40860;51.710;8.736;2024-02-28T08:05:58;62.50;;;28.67;;
54959;SDS011;40860;51.710;8.736;2024-02-28T08:10:01;60.38;;;29.20;;
54959;SDS011;40860;51.710;8.736;2024-02-28T08:14:07;63.85;;;28.50;;
54959;SDS011;40860;51.710;8.736;2024-02-28T08:18:10;68.30;;;29.33;;
54959;SDS011;40860;51.710;8.736;2024-02-28T08:22:14;68.55;;;29.05;;
54959;SDS011;40860;51.710;8.736;2024-02-28T08:26:17;61.05;;;27.40;;
54959;SDS011;40860;51.710;8.736;2024-02-28T08:30:20;57.97;;;27.77;;
54959;SDS011;40860;51.710;8.736;2024-02-28T08:34:23;65.30;;;28.95;;
54959;SDS011;40860;51.710;8.736;2024-02-28T08:38:27;61.90;;;28.95;;
54959;SDS011;40860;51.710;8.736;2024-02-28T08:42:30;66.18;;;30.63;;
54959;SDS011;40860;51.710;8.736;2024-02-28T08:46:33;63.45;;;28.70;;
54959;SDS011;40860;51.710;8.736;2024-02-28T08:50:36;56.63;;;28.05;;
54959;SDS011;40860;51.710;8.736;2024-02-28T08:54:40;66.55;;;30.50;;
54959;SDS011;40860;51.710;8.736;2024-02-28T08:58:42;64.97;;;30.65;;
54959;SDS011;40860;51.710;8.736;2024-02-28T09:02:45;61.90;;;29.27;;
54959;SDS011;40860;51.710;8.736;2024-02-28T09:06:48;69.30;;;30.27;;
54959;SDS011;40860;51.710;8.736;2024-02-28T09:10:53;64.55;;;29.15;;
54959;SDS011;40860;51.710;8.736;2024-02-28T09:14:55;63.53;;;31.30;;
54959;SDS011;40860;51.710;8.736;2024-02-28T09:19:00;61.53;;;30.13;;
54959;SDS011;40860;51.710;8.736;2024-02-28T09:23:03;65.97;;;30.92;;
54959;SDS011;40860;51.710;8.736;2024-02-28T09:27:07;63.90;;;30.55;;
54959;SDS011;40860;51.710;8.736;2024-02-28T09:31:10;67.63;;;31.27;;
54959;SDS011;40860;51.710;8.736;2024-02-28T09:35:13;60.70;;;30.48;;
54959;SDS011;40860;51.710;8.736;2024-02-28T09:39:16;57.33;;;29.88;;
54959;SDS011;40860;51.710;8.736;2024-02-28T09:43:22;55.55;;;30.17;;
54959;SDS011;40860;51.710;8.736;2024-02-28T09:47:30;55.97;;;30.77;;
54959;SDS011;40860;51.710;8.736;2024-02-28T09:51:36;59.08;;;31.17;;
54959;SDS011;40860;51.710;8.736;2024-02-28T09:55:39;53.88;;;30.50;;
54959;SDS011;40860;51.710;8.736;2024-02-28T09:59:43;56.35;;;31.35;;
54959;SDS011;40860;51.710;8.736;2024-02-28T10:03:55;54.25;;;29.67;;
54959;SDS011;40860;51.710;8.736;2024-02-28T10:08:01;53.53;;;30.52;;
54959;SDS011;40860;51.710;8.736;2024-02-28T10:12:04;49.28;;;29.52;;
54959;SDS011;40860;51.710;8.736;2024-02-28T10:16:09;48.17;;;27.92;;
54959;SDS011;40860;51.710;8.736;2024-02-28T10:20:12;45.55;;;28.55;;
54959;SDS011;40860;51.710;8.736;2024-02-28T10:24:15;50.83;;;28.88;;
54959;SDS011;40860;51.710;8.736;2024-02-28T10:28:18;48.55;;;29.13;;
54959;SDS011;40860;51.710;8.736;2024-02-28T10:32:22;49.78;;;28.52;;
54959;SDS011;40860;51.710;8.736;2024-02-28T10:36:25;45.85;;;29.73;;
54959;SDS011;40860;51.710;8.736;2024-02-28T10:40:29;49.85;;;30.38;;
54959;SDS011;40860;51.710;8.736;2024-02-28T10:44:32;49.55;;;30.60;;
54959;SDS011;40860;51.710;8.736;2024-02-28T10:48:38;51.78;;;30.92;;
54959;SDS011;40860;51.710;8.736;2024-02-28T10:52:43;52.17;;;33.22;;
54959;SDS011;40860;51.710;8.736;2024-02-28T10:56:48;59.72;;;33.25;;
54959;SDS011;40860;51.710;8.736;2024-02-28T11:00:51;57.78;;;32.92;;
54959;SDS011;40860;51.710;8.736;2024-02-28T11:04:55;49.97;;;31.17;;
54959;SDS011;40860;51.710;8.736;2024-02-28T11:08:59;56.35;;;33.70;;
54959;SDS011;40860;51.710;8.736;2024-02-28T11:13:03;52.03;;;32.28;;
54959;SDS011;40860;51.710;8.736;2024-02-28T11:17:06;57.00;;;33.42;;
54959;SDS011;40860;51.710;8.736;2024-02-28T11:21:16;63.85;;;34.20;;
54959;SDS011;40860;51.710;8.736;2024-02-28T11:25:19;58.10;;;34.88;;
54959;SDS011;40860;51.710;8.736;2024-02-28T11:29:22;60.95;;;36.53;;
54959;SDS011;40860;51.710;8.736;2024-02-28T11:33:26;60.42;;;36.60;;
54959;SDS011;40860;51.710;8.736;2024-02-28T11:37:30;58.85;;;35.72;;
54959;SDS011;40860;51.710;8.736;2024-02-28T11:41:34;62.72;;;36.55;;
54959;SDS011;40860;51.710;8.736;2024-02-28T11:45:39;62.40;;;35.78;;
54959;SDS011;40860;51.710;8.736;2024-02-28T11:49:42;57.20;;;35.92;;
54959;SDS011;40860;51.710;8.736;2024-02-28T11:53:48;60.97;;;36.03;;
54959;SDS011;40860;51.710;8.736;2024-02-28T11:57:51;61.63;;;34.95;;
54959;SDS011;40860;51.710;8.736;2024-02-28T12:01:54;60.22;;;36.60;;
54959;SDS011;40860;51.710;8.736;2024-02-28T12:05:57;60.53;;;34.10;;
54959;SDS011;40860;51.710;8.736;2024-02-28T12:10:02;54.75;;;33.63;;
54959;SDS011;40860;51.710;8.736;2024-02-28T12:14:06;52.65;;;33.50;;
54959;SDS011;40860;51.710;8.736;2024-02-28T12:18:11;52.65;;;33.53;;
54959;SDS011;40860;51.710;8.736;2024-02-28T12:22:14;58.83;;;34.72;;
54959;SDS011;40860;51.710;8.736;2024-02-28T12:26:18;58.55;;;34.38;;
54959;SDS011;40860;51.710;8.736;2024-02-28T12:30:22;55.70;;;33.22;;
54959;SDS011;40860;51.710;8.736;2024-02-28T12:34:25;53.05;;;33.55;;
54959;SDS011;40860;51.710;8.736;2024-02-28T12:38:27;54.75;;;33.38;;
54959;SDS011;40860;51.710;8.736;2024-02-28T12:42:32;54.65;;;32.90;;
54959;SDS011;40860;51.710;8.736;2024-02-28T12:46:34;55.42;;;34.25;;
54959;SDS011;40860;51.710;8.736;2024-02-28T12:50:37;50.40;;;31.90;;
54959;SDS011;40860;51.710;8.736;2024-02-28T12:54:40;52.78;;;31.02;;
54959;SDS011;40860;51.710;8.736;2024-02-28T12:58:44;54.53;;;32.65;;
54959;SDS011;40860;51.710;8.736;2024-02-28T13:02:47;48.47;;;30.27;;
54959;SDS011;40860;51.710;8.736;2024-02-28T13:06:50;54.13;;;31.63;;
54959;SDS011;40860;51.710;8.736;2024-02-28T13:10:54;46.25;;;30.20;;
54959;SDS011;40860;51.710;8.736;2024-02-28T13:15:00;53.03;;;30.48;;
54959;SDS011;40860;51.710;8.736;2024-02-28T13:19:04;44.78;;;28.55;;
54959;SDS011;40860;51.710;8.736;2024-02-28T13:23:07;51.60;;;32.08;;
54959;SDS011;40860;51.710;8.736;2024-02-28T13:27:10;47.83;;;30.42;;
54959;SDS011;40860;51.710;8.736;2024-02-28T13:31:14;48.78;;;30.67;;
54959;SDS011;40860;51.710;8.736;2024-02-28T13:35:17;46.50;;;30.40;;
54959;SDS011;40860;51.710;8.736;2024-02-28T13:39:20;45.75;;;30.20;;
54959;SDS011;40860;51.710;8.736;2024-02-28T13:43:25;44.30;;;29.48;;
54959;SDS011;40860;51.710;8.736;2024-02-28T13:47:30;46.78;;;29.35;;
54959;SDS011;40860;51.710;8.736;2024-02-28T13:51:34;47.63;;;29.67;;
54959;SDS011;40860;51.710;8.736;2024-02-28T13:55:38;44.63;;;29.90;;
54959;SDS011;40860;51.710;8.736;2024-02-28T13:59:41;48.47;;;30.30;;
54959;SDS011;40860;51.710;8.736;2024-02-28T14:03:45;48.90;;;30.33;;
54959;SDS011;40860;51.710;8.736;2024-02-28T14:07:48;46.15;;;29.77;;
54959;SDS011;40860;51.710;8.736;2024-02-28T14:11:51;41.30;;;28.25;;
54959;SDS011;40860;51.710;8.736;2024-02-28T14:15:54;43.35;;;27.63;;
54959;SDS011;40860;51.710;8.736;2024-02-28T14:19:58;38.95;;;26.52;;
54959;SDS011;40860;51.710;8.736;2024-02-28T14:24:01;38.97;;;27.08;;
54959;SDS011;40860;51.710;8.736;2024-02-28T14:28:04;41.92;;;27.95;;
54959;SDS011;40860;51.710;8.736;2024-02-28T14:32:07;46.97;;;30.85;;
54959;SDS011;40860;51.710;8.736;2024-02-28T14:36:12;53.03;;;31.55;;
54959;SDS011;40860;51.710;8.736;2024-02-28T14:40:15;43.05;;;28.88;;
54959;SDS011;40860;51.710;8.736;2024-02-28T14:44:18;41.63;;;26.77;;
54959;SDS011;40860;51.710;8.736;2024-02-28T14:48:21;43.13;;;27.70;;
54959;SDS011;40860;51.710;8.736;2024-02-28T14:52:25;40.60;;;26.90;;
54959;SDS011;40860;51.710;8.736;2024-02-28T14:56:28;43.92;;;28.20;;
54959;SDS011;40860;51.710;8.736;2024-02-28T15:00:31;38.45;;;26.77;;
54959;SDS011;40860;51.710;8.736;2024-02-28T15:04:34;42.63;;;27.02;;
54959;SDS011;40860;51.710;8.736;2024-02-28T15:08:39;39.00;;;25.63;;
54959;SDS011;40860;51.710;8.736;2024-02-28T15:12:42;39.38;;;26.45;;
54959;SDS011;40860;51.710;8.736;2024-02-28T15:16:46;36.92;;;25.25;;
54959;SDS011;40860;51.710;8.736;2024-02-28T15:20:49;43.50;;;26.70;;
54959;SDS011;40860;51.710;8.736;2024-02-28T15:24:57;38.97;;;25.48;;
54959;SDS011;40860;51.710;8.736;2024-02-28T15:29:00;47.33;;;27.58;;
54959;SDS011;40860;51.710;8.736;2024-02-28T15:33:03;44.95;;;26.85;;
54959;SDS011;40860;51.710;8.736;2024-02-28T15:37:07;43.30;;;26.70;;
54959;SDS011;40860;51.710;8.736;2024-02-28T15:41:11;40.42;;;26.58;;
54959;SDS011;40860;51.710;8.736;2024-02-28T15:45:14;39.10;;;25.90;;
54959;SDS011;40860;51.710;8.736;2024-02-28T15:49:19;40.80;;;26.88;;
54959;SDS011;40860;51.710;8.736;2024-02-28T15:53:37;45.55;;;26.55;;
54959;SDS011;40860;51.710;8.736;2024-02-28T15:57:41;38.20;;;26.20;;
54959;SDS011;40860;51.710;8.736;2024-02-28T16:01:44;38.58;;;26.08;;
54959;SDS011;40860;51.710;8.736;2024-02-28T16:05:48;37.55;;;24.98;;
54959;SDS011;40860;51.710;8.736;2024-02-28T16:09:51;37.47;;;25.75;;
54959;SDS011;40860;51.710;8.736;2024-02-28T16:13:55;38.75;;;25.48;;
54959;SDS011;40860;51.710;8.736;2024-02-28T16:17:58;39.67;;;25.33;;
54959;SDS011;40860;51.710;8.736;2024-02-28T16:22:01;41.92;;;26.90;;
54959;SDS011;40860;51.710;8.736;2024-02-28T16:26:04;40.22;;;26.17;;
54959;SDS011;40860;51.710;8.736;2024-02-28T16:30:08;41.60;;;26.52;;
54959;SDS011;40860;51.710;8.736;2024-02-28T16:34:11;41.35;;;26.45;;
54959;SDS011;40860;51.710;8.736;2024-02-28T16:38:15;41.05;;;26.38;;
54959;SDS011;40860;51.710;8.736;2024-02-28T16:42:17;38.83;;;25.67;;
54959;SDS011;40860;51.710;8.736;2024-02-28T16:46:21;40.40;;;25.40;;
54959;SDS011;40860;51.710;8.736;2024-02-28T16:50:24;43.35;;;26.70;;
54959;SDS011;40860;51.710;8.736;2024-02-28T16:54:27;37.70;;;25.48;;
54959;SDS011;40860;51.710;8.736;2024-02-28T16:58:30;44.20;;;26.23;;
54959;SDS011;40860;51.710;8.736;2024-02-28T17:02:36;40.72;;;26.30;;
54959;SDS011;40860;51.710;8.736;2024-02-28T17:06:40;42.72;;;27.63;;
54959;SDS011;40860;51.710;8.736;2024-02-28T17:10:43;40.65;;;25.40;;
54959;SDS011;40860;51.710;8.736;2024-02-28T17:14:45;41.33;;;26.08;;
54959;SDS011;40860;51.710;8.736;2024-02-28T17:18:49;45.05;;;28.48;;
54959;SDS011;40860;51.710;8.736;2024-02-28T17:22:52;45.35;;;26.70;;
54959;SDS011;40860;51.710;8.736;2024-02-28T17:26:55;44.72;;;27.25;;
54959;SDS011;40860;51.710;8.736;2024-02-28T17:30:58;41.35;;;26.00;;
54959;SDS011;40860;51.710;8.736;2024-02-28T17:35:02;42.28;;;26.13;;
54959;SDS011;40860;51.710;8.736;2024-02-28T17:39:06;45.28;;;27.00;;
54959;SDS011;40860;51.710;8.736;2024-02-28T17:43:12;45.35;;;28.15;;
54959;SDS011;40860;51.710;8.736;2024-02-28T17:47:16;48.58;;;29.90;;
54959;SDS011;40860;51.710;8.736;2024-02-28T17:51:21;51.03;;;30.23;;
54959;SDS011;40860;51.710;8.736;2024-02-28T17:55:24;47.17;;;30.33;;
54959;SDS011;40860;51.710;8.736;2024-02-28T17:59:29;47.63;;;28.08;;
54959;SDS011;40860;51.710;8.736;2024-02-28T18:03:33;51.15;;;31.17;;
54959;SDS011;40860;51.710;8.736;2024-02-28T18:07:37;51.97;;;30.80;;
54959;SDS011;40860;51.710;8.736;2024-02-28T18:11:41;47.70;;;29.88;;
54959;SDS011;40860;51.710;8.736;2024-02-28T18:15:44;48.35;;;30.13;;
54959;SDS011;40860;51.710;8.736;2024-02-28T18:19:47;47.75;;;30.38;;
54959;SDS011;40860;51.710;8.736;2024-02-28T18:23:51;47.85;;;29.70;;
54959;SDS011;40860;51.710;8.736;2024-02-28T18:27:56;46.20;;;28.35;;
54959;SDS011;40860;51.710;8.736;2024-02-28T18:32:03;44.55;;;27.92;;
54959;SDS011;40860;51.710;8.736;2024-02-28T18:36:07;48.25;;;28.85;;
54959;SDS011;40860;51.710;8.736;2024-02-28T18:40:12;48.15;;;28.55;;
54959;SDS011;40860;51.710;8.736;2024-02-28T18:44:17;44.33;;;27.55;;
54959;SDS011;40860;51.710;8.736;2024-02-28T18:48:20;40.78;;;25.85;;
54959;SDS011;40860;51.710;8.736;2024-02-28T18:52:23;37.22;;;22.27;;
54959;SDS011;40860;51.710;8.736;2024-02-28T18:56:28;36.08;;;22.58;;
54959;SDS011;40860;51.710;8.736;2024-02-28T19:00:32;32.75;;;20.65;;
54959;SDS011;40860;51.710;8.736;2024-02-28T19:04:36;29.70;;;18.88;;
54959;SDS011;40860;51.710;8.736;2024-02-28T19:08:39;26.30;;;18.92;;
54959;SDS011;40860;51.710;8.736;2024-02-28T19:12:43;24.77;;;16.15;;
54959;SDS011;40860;51.710;8.736;2024-02-28T19:16:47;26.58;;;16.63;;
54959;SDS011;40860;51.710;8.736;2024-02-28T19:20:50;24.45;;;17.00;;
54959;SDS011;40860;51.710;8.736;2024-02-28T19:24:53;23.52;;;16.65;;
54959;SDS011;40860;51.710;8.736;2024-02-28T19:28:58;23.10;;;17.25;;
54959;SDS011;40860;51.710;8.736;2024-02-28T19:33:00;25.17;;;16.33;;
54959;SDS011;40860;51.710;8.736;2024-02-28T19:37:03;23.60;;;16.33;;
54959;SDS011;40860;51.710;8.736;2024-02-28T19:41:06;22.40;;;15.75;;
54959;SDS011;40860;51.710;8.736;2024-02-28T19:45:11;21.70;;;15.25;;
54959;SDS011;40860;51.710;8.736;2024-02-28T19:49:14;21.40;;;14.27;;
54959;SDS011;40860;51.710;8.736;2024-02-28T19:53:17;20.83;;;14.10;;
54959;SDS011;40860;51.710;8.736;2024-02-28T19:57:21;18.70;;;13.38;;
54959;SDS011;40860;51.710;8.736;2024-02-28T20:01:26;18.08;;;12.55;;
54959;SDS011;40860;51.710;8.736;2024-02-28T20:05:29;17.75;;;12.73;;
54959;SDS011;40860;51.710;8.736;2024-02-28T20:09:32;16.42;;;11.90;;
54959;SDS011;40860;51.710;8.736;2024-02-28T20:13:36;15.98;;;12.82;;
54959;SDS011;40860;51.710;8.736;2024-02-28T20:17:41;17.08;;;11.77;;
54959;SDS011;40860;51.710;8.736;2024-02-28T20:21:44;15.23;;;11.15;;
54959;SDS011;40860;51.710;8.736;2024-02-28T20:25:47;14.00;;;11.25;;
54959;SDS011;40860;51.710;8.736;2024-02-28T20:29:51;13.25;;;9.88;;
54959;SDS011;40860;51.710;8.736;2024-02-28T20:33:55;12.95;;;9.85;;
54959;SDS011;40860;51.710;8.736;2024-02-28T20:38:01;12.68;;;9.85;;
54959;SDS011;40860;51.710;8.736;2024-02-28T20:42:04;12.02;;;9.00;;
54959;SDS011;40860;51.710;8.736;2024-02-28T20:46:07;10.57;;;8.55;;
54959;SDS011;40860;51.710;8.736;2024-02-28T20:50:11;16.40;;;11.45;;
54959;SDS011;40860;51.710;8.736;2024-02-28T20:54:14;11.75;;;8.40;;
54959;SDS011;40860;51.710;8.736;2024-02-28T20:58:17;10.10;;;7.40;;
54959;SDS011;40860;51.710;8.736;2024-02-28T21:02:20;8.05;;;6.80;;
54959;SDS011;40860;51.710;8.736;2024-02-28T21:06:25;9.10;;;6.63;;
54959;SDS011;40860;51.710;8.736;2024-02-28T21:10:30;7.28;;;6.13;;
54959;SDS011;40860;51.710;8.736;2024-02-28T21:14:33;7.10;;;6.38;;
54959;SDS011;40860;51.710;8.736;2024-02-28T21:18:36;8.70;;;5.97;;
54959;SDS011;40860;51.710;8.736;2024-02-28T21:22:40;7.35;;;5.85;;
54959;SDS011;40860;51.710;8.736;2024-02-28T21:26:44;7.10;;;5.30;;
54959;SDS011;40860;51.710;8.736;2024-02-28T21:30:47;9.43;;;6.20;;
54959;SDS011;40860;51.710;8.736;2024-02-28T21:34:50;8.15;;;6.00;;
54959;SDS011;40860;51.710;8.736;2024-02-28T21:38:54;7.18;;;6.10;;
54959;SDS011;40860;51.710;8.736;2024-02-28T21:42:59;7.75;;;6.40;;
54959;SDS011;40860;51.710;8.736;2024-02-28T21:47:02;8.02;;;5.90;;
54959;SDS011;40860;51.710;8.736;2024-02-28T21:51:07;6.57;;;5.57;;
54959;SDS011;40860;51.710;8.736;2024-02-28T21:55:11;7.10;;;5.68;;
54959;SDS011;40860;51.710;8.736;2024-02-28T21:59:15;6.82;;;5.70;;
54959;SDS011;40860;51.710;8.736;2024-02-28T22:03:18;7.18;;;5.57;;
54959;SDS011;40860;51.710;8.736;2024-02-28T22:07:21;6.95;;;5.38;;
54959;SDS011;40860;51.710;8.736;2024-02-28T22:11:26;6.82;;;5.30;;
54959;SDS011;40860;51.710;8.736;2024-02-28T22:15:30;6.95;;;4.88;;
54959;SDS011;40860;51.710;8.736;2024-02-28T22:19:33;7.20;;;4.82;;
54959;SDS011;40860;51.710;8.736;2024-02-28T22:23:37;5.60;;;4.70;;
54959;SDS011;40860;51.710;8.736;2024-02-28T22:27:41;7.35;;;5.03;;
54959;SDS011;40860;51.710;8.736;2024-02-28T22:31:44;8.10;;;5.22;;
54959;SDS011;40860;51.710;8.736;2024-02-28T22:35:48;6.40;;;5.05;;
54959;SDS011;40860;51.710;8.736;2024-02-28T22:39:51;8.75;;;5.38;;
54959;SDS011;40860;51.710;8.736;2024-02-28T22:43:55;7.18;;;5.30;;
54959;SDS011;40860;51.710;8.736;2024-02-28T22:47:58;6.25;;;4.88;;
54959;SDS011;40860;51.710;8.736;2024-02-28T22:52:01;5.97;;;4.57;;
54959;SDS011;40860;51.710;8.736;2024-02-28T22:56:04;5.90;;;4.70;;
54959;SDS011;40860;51.710;8.736;2024-02-28T23:00:09;8.00;;;4.90;;
54959;SDS011;40860;51.710;8.736;2024-02-28T23:04:30;6.78;;;4.82;;
54959;SDS011;40860;51.710;8.736;2024-02-28T23:08:34;6.57;;;4.88;;
54959;SDS011;40860;51.710;8.736;2024-02-28T23:12:36;6.63;;;4.88;;
54959;SDS011;40860;51.710;8.736;2024-02-28T23:16:41;6.32;;;5.03;;
54959;SDS011;40860;51.710;8.736;2024-02-28T23:20:44;8.68;;;5.20;;
54959;SDS011;40860;51.710;8.736;2024-02-28T23:24:47;6.15;;;5.03;;
54959;SDS011;40860;51.710;8.736;2024-02-28T23:28:50;6.45;;;4.82;;
54959;SDS011;40860;51.710;8.736;2024-02-28T23:32:54;6.50;;;4.88;;
54959;SDS011;40860;51.710;8.736;2024-02-28T23:37:01;6.53;;;4.82;;
54959;SDS011;40860;51.710;8.736;2024-02-28T23:41:04;6.53;;;4.97;;
54959;SDS011;40860;51.710;8.736;2024-02-28T23:45:08;7.50;;;5.22;;
54959;SDS011;40860;51.710;8.736;2024-02-28T23:49:12;7.05;;;5.00;;
54959;SDS011;40860;51.710;8.736;2024-02-28T23:53:15;7.50;;;5.80;;